Weather at El Dorado Substation Heliport

Public forecast

Using degrees Fahrenheit for public forecast. Weather courtesy of forecast.io.

Closest aviation weather report (METAR) to El Dorado Substation Heliport

Closest report is Henderson Executive Airport, 12.3 nm (22.8 km) NNW. Retrieved 2022/01/27 06:56 UTC (45 minutes ago):

KHND 270656Z AUTO 18005KT 10SM CLR 02/M09 A3024 RMK AO2 SLP266 T00221094 401221011 FZRANO

Closest aviation forecast (TAF) to El Dorado Substation Heliport

Closest forecast is Henderson Executive Airport, 12.3 nm (22.8 km) NNW. Retrieved 2022/01/27 06:24 UTC (1 hour ago):

TAF KHND 270520Z 2706/2806 17006KT P6SM SKC FM271800 03007KT P6SM SKC FM272100 02013G22KT P6SM SKC FM280400 01009KT P6SM SKC